createdAt,value
2017-02-21T00:01:08.769Z,88.27
2017-02-21T00:02:20.209Z,85.7
2017-02-21T00:03:31.641Z,87.13
2017-02-21T00:04:43.159Z,86.84
2017-02-21T00:05:54.588Z,86.27
2017-02-21T00:07:06.024Z,86.65
2017-02-21T00:08:17.684Z,86.65
2017-02-21T00:09:29.114Z,87.13
2017-02-21T00:10:40.593Z,87.7
2017-02-21T00:11:52.064Z,87.6
2017-02-21T00:13:03.521Z,87.13
2017-02-21T00:14:14.947Z,87.13
2017-02-21T00:15:26.594Z,87.7
2017-02-21T00:16:38.087Z,88.08
2017-02-21T00:17:49.531Z,87.41
2017-02-21T00:19:01.168Z,87.32
2017-02-21T00:20:12.628Z,87.89
2017-02-21T00:21:24.060Z,86.75
2017-02-21T00:22:35.566Z,87.89
2017-02-21T00:23:47.045Z,88.46
2017-02-21T00:24:58.490Z,87.03
2017-02-21T00:26:09.951Z,87.03
2017-02-21T00:27:21.596Z,86.94
2017-02-21T00:28:33.096Z,88.56
2017-02-21T00:29:44.557Z,88.27
2017-02-21T00:30:55.991Z,86.65
2017-02-21T00:32:07.625Z,88.18
2017-02-21T00:33:19.067Z,88.08
2017-02-21T00:34:30.561Z,87.03
2017-02-21T00:35:42.204Z,87.32
2017-02-21T00:36:53.672Z,88.65
2017-02-21T00:38:05.134Z,87.32
2017-02-21T00:39:16.561Z,87.79
2017-02-21T00:40:28.056Z,87.32
2017-02-21T00:41:39.494Z,87.23
2017-02-21T00:42:50.972Z,86.94
2017-02-21T00:44:02.448Z,87.32
2017-02-21T00:45:13.886Z,87.13
2017-02-21T00:46:25.375Z,87.23
2017-02-21T00:47:36.812Z,88.75
2017-02-21T00:48:48.261Z,87.41
2017-02-21T00:49:59.720Z,88.27
2017-02-21T00:51:11.374Z,87.32
2017-02-21T00:52:23.054Z,87.03
2017-02-21T00:53:34.693Z,87.89
2017-02-21T00:54:46.323Z,87.89
2017-02-21T00:55:57.968Z,87.6
2017-02-21T00:57:09.402Z,87.13
2017-02-21T00:58:20.909Z,88.93
2017-02-21T00:59:32.353Z,89.41
2017-02-21T01:00:43.809Z,88.56
2017-02-21T01:01:55.259Z,88.93
2017-02-21T01:03:06.710Z,87.79
2017-02-21T01:04:18.207Z,88.18
2017-02-21T01:05:29.644Z,87.13
2017-02-21T01:06:41.077Z,88.08
2017-02-21T01:07:52.518Z,88.08
2017-02-21T01:09:03.951Z,86.18
2017-02-21T01:10:15.473Z,88.27
2017-02-21T01:11:26.931Z,89.13
2017-02-21T01:12:38.360Z,89.98
2017-02-21T01:13:50.003Z,90.36
2017-02-21T01:15:01.650Z,89.13
2017-02-21T01:16:13.152Z,89.61
2017-02-21T01:17:24.604Z,90.65
2017-02-21T01:18:36.054Z,88.75
2017-02-21T01:19:47.490Z,88.75
2017-02-21T01:20:58.931Z,89.7
2017-02-21T01:22:10.430Z,90.51
2017-02-21T01:23:21.873Z,89.03
2017-02-21T01:24:33.502Z,88.56
2017-02-21T01:25:44.961Z,90.46
2017-02-21T01:26:56.405Z,89.32
2017-02-21T01:28:07.889Z,89.79
2017-02-21T01:29:19.346Z,88.75
2017-02-21T01:30:30.777Z,89.79
2017-02-21T01:31:42.259Z,90.46
2017-02-21T01:32:53.703Z,90.65
2017-02-21T01:34:05.182Z,90.65
2017-02-21T01:35:16.627Z,90.56
2017-02-21T01:36:28.286Z,90.46
2017-02-21T01:37:39.721Z,90.84
2017-02-21T01:38:51.161Z,91.6
2017-02-21T01:40:02.649Z,91.99
2017-02-21T01:41:14.089Z,90.94
2017-02-21T01:42:25.522Z,91.51
2017-02-21T01:43:36.969Z,90.56
2017-02-21T01:44:48.415Z,91.6
2017-02-21T01:45:59.932Z,92.55
2017-02-21T01:47:11.369Z,93.13
2017-02-21T01:48:22.818Z,92.84
2017-02-21T01:49:34.249Z,92.55
2017-02-21T01:50:45.918Z,92.94
2017-02-21T01:51:57.432Z,92.27
2017-02-21T01:53:08.860Z,93.13
2017-02-21T01:54:20.310Z,91.99
2017-02-21T01:55:31.756Z,92.84
2017-02-21T01:56:43.193Z,94.42
2017-02-21T01:57:54.698Z,93.7
2017-02-21T01:59:06.130Z,94.37
2017-02-21T02:00:17.559Z,94.37
2017-02-21T02:01:29.004Z,93.6
2017-02-21T02:02:40.654Z,95.32
2017-02-21T02:03:52.171Z,95.51
2017-02-21T02:05:03.810Z,94.93
2017-02-21T02:06:15.269Z,94.17
2017-02-21T02:07:26.723Z,95.46
2017-02-21T02:08:38.184Z,95.12
2017-02-21T02:09:49.675Z,94.56
2017-02-21T02:11:01.104Z,96.12
2017-02-21T02:12:12.528Z,95.17
2017-02-21T02:13:23.976Z,94.17
2017-02-21T02:14:35.425Z,94.22
2017-02-21T02:15:46.942Z,95.7
2017-02-21T02:16:58.388Z,97.36
2017-02-21T02:18:09.812Z,95.75
2017-02-21T02:19:21.456Z,96.7
2017-02-21T02:20:32.905Z,94.79
2017-02-21T02:21:44.401Z,95.08
2017-02-21T02:22:56.042Z,95.94
2017-02-21T02:24:07.475Z,95.84
2017-02-21T02:25:18.936Z,96.79
2017-02-21T02:26:30.381Z,95.36
2017-02-21T02:27:41.876Z,96.6
2017-02-21T02:28:53.315Z,96.31
2017-02-21T02:30:04.761Z,96.98
2017-02-21T02:31:16.595Z,97.17
2017-02-21T02:32:28.059Z,96.89
2017-02-21T02:33:39.786Z,96.31
2017-02-21T02:34:51.213Z,96.79
2017-02-21T02:36:02.661Z,95.46
2017-02-21T02:37:14.097Z,95.94
2017-02-21T02:38:25.564Z,96.12
2017-02-21T02:39:37.046Z,96.41
2017-02-21T02:40:48.488Z,96.6
2017-02-21T02:42:00.146Z,95.94
2017-02-21T02:43:11.777Z,97.36
2017-02-21T02:44:23.248Z,97.74
2017-02-21T02:45:34.755Z,97.84
2017-02-21T02:46:46.432Z,97.08
2017-02-21T02:47:57.899Z,98.6
2017-02-21T02:49:09.355Z,98.13
2017-02-21T02:50:20.999Z,99.08
2017-02-21T02:51:32.505Z,98.88
2017-02-21T02:52:44.148Z,97.46
2017-02-21T02:53:55.593Z,97.93
2017-02-21T02:55:07.233Z,99.55
2017-02-21T02:56:18.691Z,99.99
2017-02-21T02:57:30.162Z,99.36
2017-02-21T02:58:41.600Z,98.6
2017-02-21T02:59:53.100Z,99.99
2017-02-21T03:01:04.542Z,99.74
2017-02-21T03:02:15.972Z,99.99
2017-02-21T03:03:27.671Z,99.08
2017-02-21T03:04:39.505Z,99.74
2017-02-21T03:05:51.135Z,98.98
2017-02-21T03:07:02.567Z,99.99
2017-02-21T03:08:14.209Z,99.99
2017-02-21T03:09:25.697Z,99.99
2017-02-21T03:10:37.330Z,99.99
2017-02-21T03:11:48.768Z,99.99
2017-02-21T03:13:00.200Z,99.99
2017-02-21T03:14:11.689Z,99.99
2017-02-21T03:15:23.181Z,99.99
2017-02-21T03:16:34.811Z,99.99
2017-02-21T03:17:46.288Z,99.99
2017-02-21T03:18:57.737Z,99.99
2017-02-21T03:20:09.181Z,99.99
2017-02-21T03:21:20.671Z,99.99
2017-02-21T03:22:32.307Z,99.99
2017-02-21T03:23:43.752Z,99.99
2017-02-21T03:24:55.200Z,99.99
2017-02-21T03:26:06.633Z,99.99
2017-02-21T03:27:18.112Z,99.99
2017-02-21T03:28:29.546Z,99.99
2017-02-21T03:29:41.010Z,99.99
2017-02-21T03:30:52.638Z,99.99
2017-02-21T03:32:04.309Z,99.99
2017-02-21T03:33:15.782Z,99.99
2017-02-21T03:34:27.660Z,99.99
2017-02-21T03:35:39.303Z,99.99
2017-02-21T03:36:50.726Z,99.99
2017-02-21T03:38:02.160Z,99.99
2017-02-21T03:39:13.650Z,99.99
2017-02-21T03:40:25.096Z,99.99
2017-02-21T03:41:36.549Z,99.99
2017-02-21T03:42:48.179Z,99.99
2017-02-21T03:43:59.621Z,99.99
2017-02-21T03:45:11.327Z,99.99
2017-02-21T03:46:22.967Z,99.99
2017-02-21T03:47:34.405Z,99.99
2017-02-21T03:48:45.864Z,99.99
2017-02-21T03:49:57.303Z,99.99
2017-02-21T03:51:08.795Z,99.99
2017-02-21T03:52:20.239Z,99.99
2017-02-21T03:53:31.671Z,99.99
2017-02-21T03:54:43.111Z,99.99
2017-02-21T03:55:54.553Z,99.99
2017-02-21T03:57:06.038Z,99.99
2017-02-21T03:58:17.480Z,99.99
2017-02-21T03:59:29.124Z,99.99
2017-02-21T04:00:40.747Z,99.99
2017-02-21T04:01:52.197Z,99.99
2017-02-21T04:03:03.700Z,99.99
2017-02-21T04:04:15.130Z,99.99
2017-02-21T04:05:26.592Z,99.99
2017-02-21T04:06:38.053Z,99.99
2017-02-21T04:07:49.479Z,99.99
2017-02-21T04:09:00.992Z,99.99
2017-02-21T04:10:12.646Z,99.99
2017-02-21T04:11:24.104Z,99.99
2017-02-21T04:12:35.750Z,99.99
2017-02-21T04:13:47.382Z,99.99
2017-02-21T04:14:58.868Z,99.99
2017-02-21T04:16:10.510Z,99.99
2017-02-21T04:17:21.970Z,99.99
2017-02-21T04:18:33.405Z,99.99
2017-02-21T04:19:44.854Z,99.99
2017-02-21T04:20:56.358Z,99.99
2017-02-21T04:22:07.785Z,99.99
2017-02-21T04:23:19.226Z,99.99
2017-02-21T04:24:30.665Z,99.99
2017-02-21T04:25:42.105Z,99.99
2017-02-21T04:26:53.600Z,99.99
2017-02-21T04:28:05.084Z,99.99
2017-02-21T04:29:16.519Z,99.99
2017-02-21T04:30:27.956Z,99.99
2017-02-21T04:31:39.397Z,99.99
2017-02-21T04:32:50.888Z,99.99
2017-02-21T04:34:02.320Z,99.99
2017-02-21T04:35:13.757Z,99.99
2017-02-21T04:36:25.203Z,99.99
2017-02-21T04:37:36.646Z,99.99
2017-02-21T04:38:48.151Z,99.99
2017-02-21T04:39:59.837Z,99.99
2017-02-21T04:41:11.266Z,99.99
2017-02-21T04:42:22.700Z,99.99
2017-02-21T04:43:34.148Z,99.99
2017-02-21T04:44:45.631Z,99.99
2017-02-21T04:45:57.065Z,99.99
2017-02-21T04:47:08.515Z,99.99
2017-02-21T04:48:19.943Z,99.99
2017-02-21T04:49:31.399Z,99.99
2017-02-21T04:50:43.099Z,99.99
2017-02-21T04:51:54.569Z,99.99
2017-02-21T04:53:06.005Z,99.99
2017-02-21T04:54:17.432Z,99.99
2017-02-21T04:55:28.870Z,99.99
2017-02-21T04:56:40.357Z,99.99
2017-02-21T04:57:51.794Z,99.99
2017-02-21T04:59:03.221Z,99.99
2017-02-21T05:00:14.661Z,99.99
2017-02-21T05:01:26.299Z,99.99
2017-02-21T05:02:37.829Z,99.99
2017-02-21T05:03:49.254Z,99.99
2017-02-21T05:05:00.692Z,99.99
2017-02-21T05:06:12.127Z,99.99
2017-02-21T05:07:23.580Z,99.99
2017-02-21T05:08:35.057Z,99.99
2017-02-21T05:09:46.696Z,99.99
2017-02-21T05:10:58.151Z,99.99
2017-02-21T05:12:09.598Z,99.99
2017-02-21T05:13:21.049Z,99.99
2017-02-21T05:14:32.544Z,99.99
2017-02-21T05:15:43.982Z,99.99
2017-02-21T05:16:55.410Z,99.99
2017-02-21T05:18:07.042Z,99.99
2017-02-21T05:19:18.475Z,99.99
2017-02-21T05:20:30.160Z,99.99
2017-02-21T05:21:41.597Z,99.99
2017-02-21T05:22:53.037Z,99.99
2017-02-21T05:24:04.469Z,99.99
2017-02-21T05:25:15.921Z,99.99
2017-02-21T05:26:27.391Z,99.99
2017-02-21T05:27:38.820Z,99.99
2017-02-21T05:28:50.453Z,99.99
2017-02-21T05:30:01.902Z,99.99
2017-02-21T05:31:13.350Z,99.99
2017-02-21T05:32:24.823Z,99.99
2017-02-21T05:33:36.271Z,99.99
2017-02-21T05:34:47.714Z,99.99
2017-02-21T05:35:59.151Z,99.99
2017-02-21T05:37:10.585Z,99.99
2017-02-21T05:38:22.310Z,99.99
2017-02-21T05:39:33.741Z,99.99
2017-02-21T05:40:45.179Z,99.99
2017-02-21T05:41:56.616Z,99.99
2017-02-21T05:43:08.257Z,99.99
2017-02-21T05:44:19.737Z,99.99
2017-02-21T05:45:31.190Z,99.99
2017-02-21T05:46:42.618Z,99.99
2017-02-21T05:47:54.068Z,99.99
2017-02-21T05:49:05.497Z,99.99
2017-02-21T05:50:16.992Z,99.99
2017-02-21T05:51:28.432Z,99.99
2017-02-21T05:52:39.873Z,99.99
2017-02-21T05:53:51.299Z,99.99
2017-02-21T05:55:02.731Z,99.99
2017-02-21T05:56:14.212Z,99.99
2017-02-21T05:57:25.849Z,99.99
2017-02-21T05:58:37.290Z,99.99
2017-02-21T05:59:48.740Z,99.99
2017-02-21T06:01:00.396Z,99.99
2017-02-21T06:02:11.875Z,99.99
2017-02-21T06:03:23.303Z,99.99
2017-02-21T06:04:34.758Z,99.99
2017-02-21T06:05:46.203Z,99.99
2017-02-21T06:06:57.649Z,99.99
2017-02-21T06:08:09.345Z,99.99
2017-02-21T06:09:20.787Z,99.99
2017-02-21T06:10:32.231Z,99.99
2017-02-21T06:11:43.667Z,99.99
2017-02-21T06:12:55.109Z,99.99
2017-02-21T06:14:06.631Z,99.99
2017-02-21T06:15:18.084Z,99.99
2017-02-21T06:16:29.506Z,99.99
2017-02-21T06:17:40.961Z,99.99
2017-02-21T06:18:52.599Z,99.99
2017-02-21T06:20:04.092Z,99.99
2017-02-21T06:21:15.536Z,99.99
2017-02-21T06:22:26.987Z,99.99
2017-02-21T06:23:38.421Z,99.99
2017-02-21T06:24:50.080Z,99.99
2017-02-21T06:26:01.579Z,99.99
2017-02-21T06:27:13.031Z,99.99
2017-02-21T06:28:24.469Z,99.99
2017-02-21T06:29:36.351Z,99.99
2017-02-21T06:30:47.800Z,99.99
2017-02-21T06:31:59.296Z,99.99
2017-02-21T06:33:10.735Z,99.99
2017-02-21T06:34:22.175Z,99.99
2017-02-21T06:35:33.614Z,99.99
2017-02-21T06:36:45.053Z,99.99
2017-02-21T06:37:56.528Z,99.99
2017-02-21T06:39:07.972Z,99.99
2017-02-21T06:40:19.404Z,99.99
2017-02-21T06:41:30.852Z,99.99
2017-02-21T06:42:42.274Z,99.99
2017-02-21T06:43:53.773Z,99.99
2017-02-21T06:45:05.204Z,99.99
2017-02-21T06:46:16.835Z,99.99
2017-02-21T06:47:28.508Z,99.99
2017-02-21T06:48:40.154Z,99.99
2017-02-21T06:49:51.652Z,99.99
2017-02-21T06:51:03.106Z,99.99
2017-02-21T06:52:14.541Z,99.99
2017-02-21T06:53:25.981Z,99.99
2017-02-21T06:54:37.412Z,99.99
2017-02-21T06:55:48.901Z,99.99
2017-02-21T06:57:00.326Z,99.99
2017-02-21T06:58:11.770Z,99.99
2017-02-21T06:59:23.236Z,99.99
2017-02-21T07:00:34.677Z,99.99
2017-02-21T07:01:46.154Z,99.99
2017-02-21T07:02:57.621Z,99.99
2017-02-21T07:04:09.055Z,99.99
2017-02-21T07:05:20.473Z,99.99
2017-02-21T07:06:32.116Z,99.99
2017-02-21T07:07:43.613Z,99.99
2017-02-21T07:08:55.056Z,99.99
2017-02-21T07:10:06.485Z,99.99
2017-02-21T07:11:17.929Z,99.99
2017-02-21T07:12:29.374Z,99.99
2017-02-21T07:13:40.876Z,99.99
2017-02-21T07:14:52.322Z,99.99
2017-02-21T07:16:03.757Z,99.99
2017-02-21T07:17:15.216Z,99.99
2017-02-21T07:18:26.667Z,99.99
2017-02-21T07:19:38.168Z,99.99
2017-02-21T07:20:49.600Z,99.99
2017-02-21T07:22:01.035Z,99.99
2017-02-21T07:23:12.467Z,99.99
2017-02-21T07:24:23.904Z,99.99
2017-02-21T07:25:35.385Z,99.99
2017-02-21T07:26:46.847Z,99.99
2017-02-21T07:27:58.324Z,99.99
2017-02-21T07:29:09.757Z,99.99
2017-02-21T07:30:21.183Z,99.99
2017-02-21T07:31:33.067Z,99.99
2017-02-21T07:32:44.517Z,99.99
2017-02-21T07:33:56.182Z,99.99
2017-02-21T07:35:07.629Z,99.99
2017-02-21T07:36:19.132Z,99.99
2017-02-21T07:37:30.639Z,99.99
2017-02-21T07:38:42.087Z,99.99
2017-02-21T07:39:53.533Z,99.99
2017-02-21T07:41:04.975Z,99.99
2017-02-21T07:42:16.426Z,99.99
2017-02-21T07:43:28.125Z,99.99
2017-02-21T07:44:39.573Z,99.99
2017-02-21T07:45:50.999Z,99.99
2017-02-21T07:47:02.445Z,99.99
2017-02-21T07:48:13.910Z,99.99
2017-02-21T07:49:25.410Z,99.99
2017-02-21T07:50:36.836Z,99.99
2017-02-21T07:51:48.299Z,99.99
2017-02-21T07:52:59.739Z,99.99
2017-02-21T07:54:11.160Z,99.99
2017-02-21T07:55:22.672Z,99.99
2017-02-21T07:56:34.319Z,99.99
2017-02-21T07:57:45.963Z,99.99
2017-02-21T07:58:57.392Z,99.99
2017-02-21T08:00:09.056Z,99.99
2017-02-21T08:01:20.540Z,99.99
2017-02-21T08:02:32.190Z,99.99
2017-02-21T08:03:43.640Z,99.99
2017-02-21T08:04:55.071Z,99.99
2017-02-21T08:06:06.512Z,99.99
2017-02-21T08:07:18.012Z,99.99
2017-02-21T08:08:29.437Z,99.99
2017-02-21T08:09:40.901Z,99.99
2017-02-21T08:10:52.345Z,99.99
2017-02-21T08:12:03.986Z,99.99
2017-02-21T08:13:15.477Z,99.99
2017-02-21T08:14:26.927Z,99.99
2017-02-21T08:15:38.399Z,99.99
2017-02-21T08:16:49.831Z,99.99
2017-02-21T08:18:01.286Z,99.99
2017-02-21T08:19:12.786Z,99.99
2017-02-21T08:20:24.216Z,99.99
2017-02-21T08:21:35.654Z,99.99
2017-02-21T08:22:47.121Z,99.99
2017-02-21T08:23:58.601Z,99.99
2017-02-21T08:25:10.065Z,99.99
2017-02-21T08:26:21.499Z,99.99
2017-02-21T08:27:32.961Z,99.99
2017-02-21T08:28:44.400Z,99.99
2017-02-21T08:29:55.880Z,99.99
2017-02-21T08:31:07.330Z,99.99
2017-02-21T08:32:18.763Z,99.99
2017-02-21T08:33:30.209Z,99.99
2017-02-21T08:34:41.646Z,99.99
2017-02-21T08:35:53.139Z,99.99
2017-02-21T08:37:04.789Z,99.99
2017-02-21T08:38:16.261Z,99.99
2017-02-21T08:39:27.701Z,99.99
2017-02-21T08:40:39.143Z,99.99
2017-02-21T08:41:51.048Z,99.99
2017-02-21T08:43:02.502Z,99.99
2017-02-21T08:44:14.139Z,99.99
2017-02-21T08:45:25.603Z,99.99
2017-02-21T08:46:37.071Z,99.99
2017-02-21T08:47:48.554Z,99.99
2017-02-21T08:48:59.995Z,99.99
2017-02-21T08:50:11.660Z,99.99
2017-02-21T08:51:23.110Z,99.99
2017-02-21T08:52:34.561Z,99.99
2017-02-21T08:53:46.041Z,99.99
2017-02-21T08:54:57.490Z,99.99
2017-02-21T08:56:08.959Z,99.99
2017-02-21T08:57:20.408Z,99.99
2017-02-21T08:58:31.865Z,99.99
2017-02-21T08:59:43.344Z,99.99
2017-02-21T09:00:54.793Z,99.99
2017-02-21T09:02:06.233Z,99.99
2017-02-21T09:03:17.666Z,99.99
2017-02-21T09:04:29.092Z,99.99
2017-02-21T09:05:40.570Z,99.99
2017-02-21T09:06:52.009Z,99.99
2017-02-21T09:08:03.475Z,99.99
2017-02-21T09:09:14.941Z,99.99
2017-02-21T09:10:26.397Z,99.99
2017-02-21T09:11:37.879Z,99.99
2017-02-21T09:12:49.320Z,99.99
2017-02-21T09:14:00.768Z,99.99
2017-02-21T09:15:12.227Z,99.99
2017-02-21T09:16:23.662Z,99.99
2017-02-21T09:17:35.151Z,99.99
2017-02-21T09:18:46.606Z,99.99
2017-02-21T09:19:58.033Z,99.99
2017-02-21T09:21:09.487Z,99.99
2017-02-21T09:22:21.126Z,99.99
2017-02-21T09:23:32.613Z,99.99
2017-02-21T09:24:44.053Z,99.99
2017-02-21T09:25:55.494Z,99.99
2017-02-21T09:27:06.932Z,99.99
2017-02-21T09:28:18.384Z,99.99
2017-02-21T09:29:29.869Z,99.99
2017-02-21T09:30:41.310Z,99.99
2017-02-21T09:31:52.737Z,99.99
2017-02-21T09:33:04.192Z,99.99
2017-02-21T09:34:15.627Z,99.99
2017-02-21T09:35:27.297Z,99.99
2017-02-21T09:36:38.753Z,99.99
2017-02-21T09:37:50.223Z,99.99
2017-02-21T09:39:01.667Z,99.99
2017-02-21T09:40:13.114Z,99.99
2017-02-21T09:41:24.810Z,99.99
2017-02-21T09:42:36.461Z,99.99
2017-02-21T09:43:47.906Z,99.99
2017-02-21T09:44:59.331Z,99.99
2017-02-21T09:46:10.765Z,99.99
2017-02-21T09:47:22.306Z,99.99
2017-02-21T09:48:33.953Z,99.99
2017-02-21T09:49:45.394Z,99.99
2017-02-21T09:50:56.830Z,99.99
2017-02-21T09:52:08.262Z,99.99
2017-02-21T09:53:19.756Z,99.99
2017-02-21T09:54:31.205Z,99.99
2017-02-21T09:55:42.835Z,99.99
2017-02-21T09:56:54.475Z,99.99
2017-02-21T09:58:05.924Z,99.99
2017-02-21T09:59:17.415Z,99.99
2017-02-21T10:00:28.863Z,99.99
2017-02-21T10:01:40.293Z,99.99
2017-02-21T10:02:51.738Z,99.99
2017-02-21T10:04:03.202Z,99.99
2017-02-21T10:05:15.123Z,99.99
2017-02-21T10:06:26.591Z,99.99
2017-02-21T10:07:38.224Z,99.99
2017-02-21T10:08:49.671Z,99.99
2017-02-21T10:10:01.113Z,99.99
2017-02-21T10:11:12.799Z,99.99
2017-02-21T10:12:24.232Z,99.99
2017-02-21T10:13:35.661Z,99.99
2017-02-21T10:14:47.307Z,99.99
2017-02-21T10:15:58.756Z,99.99
2017-02-21T10:17:10.448Z,99.99
2017-02-21T10:18:21.874Z,99.99
2017-02-21T10:19:33.319Z,99.99
2017-02-21T10:20:44.788Z,99.99
2017-02-21T10:21:56.626Z,99.99
2017-02-21T10:23:08.310Z,99.99
2017-02-21T10:24:19.748Z,99.99
2017-02-21T10:25:31.202Z,99.99
2017-02-21T10:26:42.653Z,99.99
2017-02-21T10:27:54.099Z,99.99
2017-02-21T10:29:05.592Z,99.99
2017-02-21T10:30:17.061Z,99.99
2017-02-21T10:31:28.501Z,99.99
2017-02-21T10:32:39.963Z,99.99
2017-02-21T10:33:51.409Z,99.99
2017-02-21T10:35:02.918Z,99.99
2017-02-21T10:36:14.373Z,99.99
2017-02-21T10:37:25.831Z,99.99
2017-02-21T10:38:37.281Z,99.99
2017-02-21T10:39:48.724Z,99.99
2017-02-21T10:41:00.211Z,99.99
2017-02-21T10:42:11.659Z,99.99
2017-02-21T10:43:23.113Z,99.99
2017-02-21T10:44:34.759Z,99.99
2017-02-21T10:45:46.205Z,99.99
2017-02-21T10:46:57.694Z,99.99
2017-02-21T10:48:09.138Z,99.99
2017-02-21T10:49:20.573Z,99.99
2017-02-21T10:50:32.016Z,99.99
2017-02-21T10:51:43.464Z,99.99
2017-02-21T10:52:54.963Z,99.99
2017-02-21T10:54:06.413Z,99.99
2017-02-21T10:55:17.833Z,99.99
2017-02-21T10:56:29.481Z,99.99
2017-02-21T10:57:40.933Z,99.99
2017-02-21T10:58:52.444Z,99.99
2017-02-21T11:00:03.907Z,99.99
2017-02-21T11:01:15.342Z,99.99
2017-02-21T11:02:26.773Z,99.99
2017-02-21T11:03:38.216Z,99.99
2017-02-21T11:04:49.712Z,99.99
2017-02-21T11:06:01.159Z,99.99
2017-02-21T11:07:12.611Z,99.99
2017-02-21T11:08:24.045Z,99.99
2017-02-21T11:09:35.491Z,99.99
2017-02-21T11:10:46.995Z,99.99
2017-02-21T11:11:58.446Z,99.99
2017-02-21T11:13:10.095Z,99.99
2017-02-21T11:14:21.525Z,99.99
2017-02-21T11:15:32.990Z,99.99
2017-02-21T11:16:44.489Z,99.99
2017-02-21T11:17:55.953Z,99.99
2017-02-21T11:19:07.414Z,99.99
2017-02-21T11:20:18.869Z,99.99
2017-02-21T11:21:30.318Z,99.99
2017-02-21T11:22:41.819Z,99.99
2017-02-21T11:23:53.283Z,99.99
2017-02-21T11:25:04.740Z,99.99
2017-02-21T11:26:16.179Z,99.99
2017-02-21T11:27:27.629Z,99.99
2017-02-21T11:28:39.125Z,99.99
2017-02-21T11:29:50.576Z,99.99
2017-02-21T11:31:02.036Z,99.99
2017-02-21T11:32:13.482Z,99.99
2017-02-21T11:33:24.907Z,99.99
2017-02-21T11:34:36.412Z,99.99
2017-02-21T11:35:47.849Z,99.99
2017-02-21T11:36:59.282Z,99.99
2017-02-21T11:38:10.748Z,99.99
2017-02-21T11:39:22.398Z,99.99
2017-02-21T11:40:33.894Z,99.99
2017-02-21T11:41:45.533Z,99.99
2017-02-21T11:42:56.983Z,99.99
2017-02-21T11:44:08.429Z,99.99
2017-02-21T11:45:19.891Z,99.99
2017-02-21T11:46:31.389Z,99.99
2017-02-21T11:47:43.025Z,99.99
2017-02-21T11:48:54.481Z,99.99
2017-02-21T11:50:06.134Z,99.99
2017-02-21T11:51:17.578Z,99.99
2017-02-21T11:52:29.073Z,99.99
2017-02-21T11:53:40.731Z,99.99
2017-02-21T11:54:52.174Z,99.99
2017-02-21T11:56:03.609Z,99.99
2017-02-21T11:57:15.052Z,99.99
2017-02-21T11:58:26.551Z,99.99
2017-02-21T11:59:38.014Z,99.99
2017-02-21T12:00:49.459Z,99.99
2017-02-21T12:02:00.899Z,99.99
2017-02-21T12:03:12.356Z,99.99
2017-02-21T12:04:23.845Z,99.99
2017-02-21T12:05:35.310Z,99.99
2017-02-21T12:06:46.768Z,99.99
2017-02-21T12:07:58.225Z,99.99
2017-02-21T12:09:10.067Z,99.99
2017-02-21T12:10:21.561Z,99.99
2017-02-21T12:11:33.007Z,99.99
2017-02-21T12:12:44.668Z,99.99
2017-02-21T12:13:56.109Z,99.99
2017-02-21T12:15:07.545Z,99.99
2017-02-21T12:16:19.253Z,99.99
2017-02-21T12:17:30.697Z,99.99
2017-02-21T12:18:42.169Z,99.99
2017-02-21T12:19:53.618Z,99.99
2017-02-21T12:21:05.276Z,99.99
2017-02-21T12:22:16.768Z,99.99
2017-02-21T12:23:28.208Z,99.99
2017-02-21T12:24:39.664Z,99.99
2017-02-21T12:25:51.163Z,99.99
2017-02-21T12:27:02.607Z,99.99
2017-02-21T12:28:14.098Z,99.99
2017-02-21T12:29:25.755Z,99.99
2017-02-21T12:30:37.453Z,99.99
2017-02-21T12:31:48.906Z,99.99
2017-02-21T12:33:00.349Z,99.99
2017-02-21T12:34:11.866Z,99.99
2017-02-21T12:35:23.337Z,99.99
2017-02-21T12:36:34.808Z,99.99
2017-02-21T12:37:46.254Z,99.99
2017-02-21T12:38:57.706Z,99.99
2017-02-21T12:40:09.213Z,99.99
2017-02-21T12:41:20.669Z,99.99
2017-02-21T12:42:32.125Z,98.52
2017-02-21T12:43:43.563Z,97.27
2017-02-21T12:44:55.197Z,96.42
2017-02-21T12:46:06.707Z,97.47
2017-02-21T12:47:18.163Z,95.08
2017-02-21T12:48:29.615Z,96.42
2017-02-21T12:49:41.079Z,97.37
2017-02-21T12:50:52.537Z,96.13
2017-02-21T12:52:04.022Z,95.94
2017-02-21T12:53:15.661Z,93.46
2017-02-21T12:54:27.114Z,92.45
2017-02-21T12:55:38.589Z,91.4
2017-02-21T12:56:50.267Z,91.02
2017-02-21T12:58:01.759Z,89.06
2017-02-21T12:59:13.413Z,87.15
2017-02-21T13:00:24.908Z,86.76
2017-02-21T13:01:36.353Z,86.57
2017-02-21T13:02:47.803Z,88.54
2017-02-21T13:03:59.327Z,87.2
2017-02-21T13:05:10.784Z,87.1
2017-02-21T13:06:22.238Z,88.25
2017-02-21T13:07:33.889Z,88.15
2017-02-21T13:08:45.358Z,89.01
2017-02-21T13:09:56.862Z,90.25
2017-02-21T13:11:08.318Z,90.83
2017-02-21T13:12:20.167Z,88.25
2017-02-21T13:13:31.854Z,89.39
2017-02-21T13:14:43.369Z,85.71
2017-02-21T13:15:54.872Z,86.29
2017-02-21T13:17:06.337Z,86.96
2017-02-21T13:18:17.781Z,84.81
2017-02-21T13:19:29.251Z,87.29
2017-02-21T13:20:40.696Z,89.3
2017-02-21T13:21:52.216Z,90.11
2017-02-21T13:23:03.661Z,90.59
2017-02-21T13:24:15.116Z,90.97
2017-02-21T13:25:26.770Z,89.92
2017-02-21T13:26:38.224Z,89.45
2017-02-21T13:27:49.727Z,91.55
2017-02-21T13:29:01.188Z,91.55
2017-02-21T13:30:12.626Z,88.4
2017-02-21T13:31:24.073Z,88.97
2017-02-21T13:32:35.727Z,92.21
2017-02-21T13:33:47.435Z,90.78
2017-02-21T13:34:58.873Z,90.4
2017-02-21T13:36:10.315Z,92.88
2017-02-21T13:37:21.753Z,92.79
2017-02-21T13:38:33.199Z,92.12
2017-02-21T13:39:44.699Z,91.78
2017-02-21T13:40:56.167Z,93.41
2017-02-21T13:42:07.820Z,93.51
2017-02-21T13:43:19.486Z,92.65
2017-02-21T13:44:30.930Z,97.17
2017-02-21T13:45:42.445Z,94.12
2017-02-21T13:46:53.875Z,94.41
2017-02-21T13:48:05.323Z,95.65
2017-02-21T13:49:16.979Z,96.51
2017-02-21T13:50:28.471Z,94.46
2017-02-21T13:51:39.959Z,96.17
2017-02-21T13:52:51.420Z,96.56
2017-02-21T13:54:02.873Z,92.46
2017-02-21T13:55:14.313Z,94.74
2017-02-21T13:56:25.991Z,92.55
2017-02-21T13:57:37.497Z,93.6
2017-02-21T13:58:49.158Z,95.17
2017-02-21T14:00:00.610Z,92.22
2017-02-21T14:01:12.050Z,95.37
2017-02-21T14:02:23.505Z,94.89
2017-02-21T14:03:34.983Z,95.84
2017-02-21T14:05:57.461Z,95.17
2017-02-21T14:07:09.115Z,96.61
2017-02-21T14:08:20.558Z,98.42
2017-02-21T14:09:32.039Z,96.32
2017-02-21T14:10:43.471Z,94.7
2017-02-21T14:11:54.896Z,95.56
2017-02-21T14:13:06.331Z,96.98
2017-02-21T14:14:17.976Z,98.22
2017-02-21T14:15:29.486Z,99.95
2017-02-21T14:16:40.938Z,99.99
2017-02-21T14:17:52.399Z,99.08
2017-02-21T14:19:03.838Z,98.32
2017-02-21T14:20:15.277Z,98.8
2017-02-21T14:21:26.969Z,99.99
2017-02-21T14:22:38.410Z,99.18
2017-02-21T14:23:49.842Z,99.99
2017-02-21T14:25:01.282Z,99.75
2017-02-21T14:26:12.720Z,99.22
2017-02-21T14:27:24.219Z,99.8
2017-02-21T14:28:35.644Z,99.99
2017-02-21T14:29:47.290Z,98.27
2017-02-21T14:30:58.725Z,99.99
2017-02-21T14:32:10.154Z,99.99
2017-02-21T14:33:21.654Z,99.99
2017-02-21T14:34:33.096Z,96.89
2017-02-21T14:35:44.537Z,99.6
2017-02-21T14:36:56.021Z,99.99
2017-02-21T14:38:07.453Z,99.99
2017-02-21T14:39:18.947Z,99.99
2017-02-21T14:40:29.285Z,99.6
2017-02-21T14:41:40.747Z,99.99
2017-02-21T14:42:52.186Z,99.08
2017-02-21T14:44:03.822Z,99.99
2017-02-21T14:45:15.309Z,99.99
2017-02-21T14:46:26.743Z,99.99
2017-02-21T14:47:38.209Z,99.99
2017-02-21T14:48:49.647Z,99.99
2017-02-21T14:50:01.095Z,99.99
2017-02-21T14:51:12.589Z,99.99
2017-02-21T14:52:24.029Z,99.99
2017-02-21T14:53:35.487Z,99.99
2017-02-21T14:54:47.121Z,99.99
2017-02-21T14:55:58.566Z,99.99
2017-02-21T14:57:10.069Z,99.99
2017-02-21T14:58:21.715Z,99.99
2017-02-21T14:59:33.365Z,99.99
2017-02-21T15:00:44.809Z,99.99
2017-02-21T15:01:56.257Z,99.99
2017-02-21T15:03:07.751Z,99.99
2017-02-21T15:04:19.381Z,99.99
2017-02-21T15:05:30.842Z,99.99
2017-02-21T15:06:42.309Z,99.99
2017-02-21T15:07:53.754Z,99.99
2017-02-21T15:09:05.236Z,99.99
2017-02-21T15:10:16.699Z,99.99
2017-02-21T15:11:28.147Z,99.99
2017-02-21T15:12:39.570Z,99.99
2017-02-21T15:13:51.030Z,99.99
2017-02-21T15:15:02.506Z,99.99
2017-02-21T15:16:14.164Z,99.99
2017-02-21T15:17:25.607Z,99.99
2017-02-21T15:18:37.268Z,99.99
2017-02-21T15:19:48.709Z,99.99
2017-02-21T15:21:00.200Z,99.99
2017-02-21T15:22:11.834Z,99.99
2017-02-21T15:23:23.273Z,99.99